Time;durP1;ratioP1;P1;durP2;ratioP2;P2;SDS_P1;SDS_P2;PMS_P1;PMS_P2;Temp;Humidity;BMP_temperature;BMP_pressure;BME280_temperature;BME280_humidity;BME280_pressure;Samples;Min_cycle;Max_cycle;Signal;HPM_P1;HPM_P2
2023/02/19 00:02:00;;;;;;;12.70;11.23;;;12.00;96.70;;;;;;5056210;28;20057;-75
2023/02/19 00:04:28;;;;;;;13.05;10.57;;;12.10;96.70;;;;;;5049480;28;20135;-74
2023/02/19 00:06:56;;;;;;;12.65;9.73;;;12.10;96.70;;;;;;5043952;28;20041;-75
2023/02/19 00:09:25;;;;;;;13.60;10.18;;;12.10;96.70;;;;;;5034057;28;20044;-75
2023/02/19 00:11:55;;;;;;;11.55;9.77;;;12.10;96.70;;;;;;5035064;28;20069;-75
2023/02/19 00:14:23;;;;;;;13.75;10.93;;;12.10;96.70;;;;;;5045085;28;20507;-75
2023/02/19 00:16:52;;;;;;;10.30;9.30;;;12.10;96.70;;;;;;5032061;28;20051;-75
2023/02/19 00:19:21;;;;;;;13.82;10.90;;;12.00;96.70;;;;;;5035807;28;20045;-75
2023/02/19 00:22:10;;;;;;;15.35;11.00;;;12.00;96.70;;;;;;5044778;28;20041;-76
2023/02/19 00:24:39;;;;;;;13.70;10.85;;;12.00;96.70;;;;;;5028453;28;21411;-75
2023/02/19 00:27:09;;;;;;;11.65;9.98;;;11.90;96.70;;;;;;5044524;28;20091;-75
2023/02/19 00:29:37;;;;;;;13.68;11.50;;;11.90;96.70;;;;;;5027474;28;20136;-75
2023/02/19 00:32:06;;;;;;;13.63;11.85;;;11.90;96.70;;;;;;5058278;28;20051;-75
2023/02/19 00:34:34;;;;;;;12.50;10.45;;;11.80;96.70;;;;;;5056120;28;20032;-75
2023/02/19 00:37:03;;;;;;;13.23;10.70;;;11.80;96.70;;;;;;5041959;28;20099;-74
2023/02/19 00:39:31;;;;;;;15.25;10.82;;;11.80;96.70;;;;;;5044821;28;20049;-75
2023/02/19 00:42:00;;;;;;;12.93;10.60;;;11.80;96.70;;;;;;5062633;28;20040;-75
2023/02/19 00:44:30;;;;;;;11.27;10.02;;;11.80;96.70;;;;;;5021018;28;20540;-75
2023/02/19 00:46:58;;;;;;;14.15;10.75;;;11.80;96.70;;;;;;5060066;28;20040;-75
2023/02/19 00:49:26;;;;;;;13.57;11.15;;;11.80;96.70;;;;;;5034120;28;20470;-75
2023/02/19 00:51:56;;;;;;;12.55;11.00;;;11.80;96.70;;;;;;5033108;28;20048;-75
2023/02/19 00:54:24;;;;;;;12.02;10.73;;;11.80;96.70;;;;;;5019196;28;20041;-75
2023/02/19 00:56:53;;;;;;;12.27;10.95;;;11.80;96.70;;;;;;5044176;28;20037;-75
2023/02/19 00:59:21;;;;;;;14.15;11.45;;;11.90;96.70;;;;;;5040605;28;20052;-75
2023/02/19 01:01:51;;;;;;;13.20;11.07;;;11.90;96.70;;;;;;5026221;28;20138;-75
2023/02/19 01:04:20;;;;;;;14.90;12.20;;;11.90;96.70;;;;;;5043750;28;21052;-75
2023/02/19 01:06:48;;;;;;;15.00;11.77;;;11.90;96.70;;;;;;5051472;28;20834;-76
2023/02/19 01:09:16;;;;;;;12.45;11.20;;;11.90;96.70;;;;;;5051805;28;20040;-75
2023/02/19 01:11:45;;;;;;;16.42;11.80;;;12.00;96.70;;;;;;5052216;28;20048;-76
2023/02/19 01:14:13;;;;;;;12.55;11.25;;;11.90;96.70;;;;;;5043803;28;20132;-75
2023/02/19 01:16:42;;;;;;;13.48;11.23;;;11.90;96.70;;;;;;5046644;28;20044;-74
2023/02/19 01:19:11;;;;;;;12.90;10.70;;;11.90;96.70;;;;;;5028989;28;21176;-75
2023/02/19 01:21:40;;;;;;;13.20;11.18;;;12.00;96.70;;;;;;5027416;28;20079;-75
2023/02/19 01:24:10;;;;;;;12.52;11.15;;;12.00;96.70;;;;;;5028663;28;20041;-75
2023/02/19 01:26:39;;;;;;;12.52;11.20;;;12.00;96.70;;;;;;5025233;28;20056;-72
2023/02/19 01:29:08;;;;;;;16.73;10.90;;;12.00;96.70;;;;;;5052441;28;20403;-72
2023/02/19 01:31:38;;;;;;;12.23;10.93;;;12.00;96.70;;;;;;5056000;28;20060;-73
2023/02/19 01:34:08;;;;;;;12.10;10.18;;;12.00;96.70;;;;;;5051611;28;20045;-72
2023/02/19 01:36:38;;;;;;;13.95;11.18;;;12.00;96.70;;;;;;5032464;28;20051;-72
2023/02/19 01:39:07;;;;;;;12.27;10.80;;;12.00;96.70;;;;;;5060749;28;20498;-72
2023/02/19 01:41:39;;;;;;;12.02;10.32;;;12.00;96.70;;;;;;5032911;28;20040;-72
2023/02/19 01:44:28;;;;;;;11.95;10.27;;;12.00;96.70;;;;;;5040259;28;20053;-73
2023/02/19 01:46:57;;;;;;;14.27;10.68;;;12.00;96.70;;;;;;5024318;28;20049;-72
2023/02/19 01:49:28;;;;;;;15.07;13.27;;;12.00;96.70;;;;;;5051207;28;20047;-72
2023/02/19 01:52:00;;;;;;;14.27;12.38;;;12.00;96.70;;;;;;5050214;28;20065;-72
2023/02/19 01:54:33;;;;;;;14.60;13.10;;;12.00;96.70;;;;;;5038177;28;20052;-72
2023/02/19 01:57:05;;;;;;;14.95;12.57;;;11.90;96.70;;;;;;5056497;28;20041;-72
2023/02/19 01:59:33;;;;;;;13.15;11.73;;;12.00;96.70;;;;;;5059738;28;20452;-72
2023/02/19 02:02:01;;;;;;;13.48;11.80;;;12.00;96.70;;;;;;5030531;28;20053;-72
2023/02/19 02:04:31;;;;;;;15.13;12.57;;;12.00;96.70;;;;;;5050845;28;20091;-72
2023/02/19 02:10:18;;;;;;;15.00;13.30;;;12.00;96.70;;;;;;5036684;28;20437;-72
2023/02/19 02:12:38;;;;;;;14.00;12.55;;;11.90;96.70;;;;;;5051574;28;20057;-72
2023/02/19 02:15:06;;;;;;;12.50;11.10;;;11.90;96.70;;;;;;5009325;28;20095;-72
2023/02/19 02:17:44;;;;;;;14.15;12.57;;;11.90;96.70;;;;;;5053524;28;20044;-72
2023/02/19 02:20:26;;;;;;;15.18;13.15;;;11.90;96.70;;;;;;5034137;28;20119;-71
2023/02/19 02:23:02;;;;;;;14.27;12.05;;;11.90;96.70;;;;;;5046519;28;20040;-72
2023/02/19 02:25:53;;;;;;;16.17;14.40;;;11.90;96.70;;;;;;5044809;28;20449;-72
2023/02/19 02:28:44;;;;;;;15.35;13.25;;;11.90;96.70;;;;;;5033763;28;20053;-72
2023/02/19 02:31:17;;;;;;;14.93;13.43;;;11.90;96.70;;;;;;5046739;28;20048;-72
2023/02/19 02:33:50;;;;;;;14.90;13.30;;;11.90;96.70;;;;;;5057700;28;20044;-72
2023/02/19 02:36:23;;;;;;;15.20;13.57;;;11.90;96.70;;;;;;5035080;28;20303;-72
2023/02/19 02:38:53;;;;;;;14.52;12.73;;;11.90;96.70;;;;;;5027238;28;20495;-72
2023/02/19 02:41:23;;;;;;;14.63;12.50;;;11.90;96.70;;;;;;5016561;28;20540;-72
2023/02/19 02:43:50;;;;;;;14.98;12.48;;;11.90;96.70;;;;;;5028354;28;20049;-72
2023/02/19 02:46:29;;;;;;;13.63;11.85;;;11.80;96.70;;;;;;5034475;28;20532;-72
2023/02/19 02:49:04;;;;;;;15.30;13.13;;;11.90;96.70;;;;;;5028919;28;20049;-72
2023/02/19 02:51:38;;;;;;;14.40;12.40;;;11.80;96.70;;;;;;5041823;28;20139;-72
2023/02/19 02:57:08;;;;;;;15.05;11.80;;;11.80;96.70;;;;;;5027437;28;20049;-72
2023/02/19 02:59:43;;;;;;;13.57;12.10;;;11.90;96.70;;;;;;5034659;28;20052;-71
2023/02/19 03:02:21;;;;;;;13.48;11.57;;;11.80;96.70;;;;;;5017392;28;20052;-72
2023/02/19 03:07:45;;;;;;;14.40;12.90;;;11.80;96.70;;;;;;5045226;28;20116;-71
2023/02/19 03:10:19;;;;;;;14.40;12.70;;;11.80;96.70;;;;;;5045701;28;20102;-72
2023/02/19 03:21:22;;;;;;;13.65;11.35;;;11.60;96.70;;;;;;5034317;28;20156;-72
2023/02/19 03:26:40;;;;;;;13.00;11.70;;;11.60;96.70;;;;;;5033977;28;20132;-72
2023/02/19 03:29:22;;;;;;;15.38;12.60;;;11.60;96.70;;;;;;5021649;28;20044;-72
2023/02/19 03:31:56;;;;;;;14.40;11.63;;;11.70;96.70;;;;;;5042805;28;20575;-72
2023/02/19 03:34:33;;;;;;;15.35;11.85;;;11.60;96.70;;;;;;5036088;28;20033;-72
2023/02/19 03:37:09;;;;;;;17.38;11.73;;;11.60;96.70;;;;;;5028537;28;20037;-71
2023/02/19 03:39:43;;;;;;;15.00;11.02;;;11.60;96.70;;;;;;5021172;28;20500;-72
2023/02/19 03:42:24;;;;;;;13.65;11.60;;;11.60;96.70;;;;;;5038517;28;20040;-72
2023/02/19 03:45:06;;;;;;;13.93;11.20;;;11.60;96.70;;;;;;5035109;28;20048;-72
2023/02/19 03:47:43;;;;;;;12.45;10.98;;;11.60;96.70;;;;;;5028280;28;20056;-72
2023/02/19 03:50:18;;;;;;;11.07;9.80;;;11.60;96.70;;;;;;5023783;28;20359;-70
2023/02/19 03:52:54;;;;;;;14.43;10.07;;;11.50;96.70;;;;;;5030636;28;20037;-72
2023/02/19 03:55:29;;;;;;;11.60;9.75;;;11.50;96.70;;;;;;5036222;28;20056;-72
2023/02/19 03:58:08;;;;;;;12.10;9.73;;;11.50;96.70;;;;;;5035938;28;20045;-72
2023/02/19 04:00:42;;;;;;;10.98;9.68;;;11.50;96.70;;;;;;5056043;28;20104;-72
2023/02/19 04:03:16;;;;;;;11.02;9.10;;;11.40;96.70;;;;;;5038213;28;20049;-72
2023/02/19 04:05:50;;;;;;;12.07;9.55;;;11.40;96.70;;;;;;5018674;28;20064;-72
2023/02/19 04:08:22;;;;;;;9.82;8.82;;;11.40;96.70;;;;;;5034249;28;20131;-72
2023/02/19 04:10:58;;;;;;;11.10;8.35;;;11.40;96.70;;;;;;5033066;28;20597;-72
2023/02/19 04:13:33;;;;;;;11.52;9.15;;;11.30;96.70;;;;;;5022068;28;20041;-72
2023/02/19 04:16:05;;;;;;;9.98;8.98;;;11.30;96.70;;;;;;5026123;28;20072;-72
2023/02/19 04:18:37;;;;;;;10.05;8.55;;;11.30;96.70;;;;;;5036987;28;20420;-72
2023/02/19 04:21:08;;;;;;;11.57;9.13;;;11.20;96.70;;;;;;5032187;28;20049;-72
2023/02/19 04:23:41;;;;;;;10.77;8.60;;;11.20;96.70;;;;;;5021326;28;20087;-72
2023/02/19 04:26:11;;;;;;;10.05;8.70;;;11.20;96.70;;;;;;5041680;28;20049;-73
2023/02/19 04:28:39;;;;;;;9.90;8.60;;;11.20;96.70;;;;;;5021615;28;20061;-72
2023/02/19 04:31:07;;;;;;;11.32;9.10;;;11.20;96.70;;;;;;5028870;28;20103;-72
2023/02/19 04:33:36;;;;;;;10.05;8.20;;;11.20;96.70;;;;;;5027016;28;20048;-73
2023/02/19 04:36:04;;;;;;;10.75;7.78;;;11.20;96.70;;;;;;5014401;28;20049;-72
2023/02/19 04:38:33;;;;;;;9.30;7.60;;;11.20;96.70;;;;;;5030781;28;20059;-72
2023/02/19 04:41:00;;;;;;;10.40;8.07;;;11.20;96.70;;;;;;5034777;28;20041;-72
2023/02/19 04:43:28;;;;;;;8.38;7.47;;;11.20;96.70;;;;;;5039260;28;20088;-72
2023/02/19 04:45:59;;;;;;;9.57;8.13;;;11.20;96.70;;;;;;5039337;28;20913;-72
2023/02/19 04:48:27;;;;;;;11.32;8.60;;;11.20;96.70;;;;;;5025801;28;20590;-73
2023/02/19 04:50:55;;;;;;;11.00;9.00;;;11.30;96.70;;;;;;5023707;28;20081;-72
2023/02/19 04:53:23;;;;;;;9.55;8.60;;;11.30;96.70;;;;;;5030892;28;20064;-71
2023/02/19 04:55:52;;;;;;;9.88;8.35;;;11.30;96.70;;;;;;5033833;28;20103;-72
2023/02/19 04:58:20;;;;;;;11.43;8.05;;;11.30;96.70;;;;;;5022589;28;20045;-72
2023/02/19 05:00:51;;;;;;;8.55;7.03;;;11.30;96.70;;;;;;5032758;28;20037;-72
2023/02/19 05:03:19;;;;;;;8.90;7.88;;;11.30;96.70;;;;;;5048681;28;20165;-72
2023/02/19 05:05:47;;;;;;;7.85;6.60;;;11.30;96.70;;;;;;5032139;28;20069;-72
2023/02/19 05:08:15;;;;;;;7.82;6.78;;;11.40;96.70;;;;;;5038169;28;20049;-72
2023/02/19 05:10:42;;;;;;;7.00;6.30;;;11.30;96.70;;;;;;5062250;28;20069;-72
2023/02/19 05:13:11;;;;;;;9.65;6.20;;;11.40;96.70;;;;;;5043833;28;20056;-72
2023/02/19 05:15:39;;;;;;;7.57;6.22;;;11.40;96.70;;;;;;5051688;28;20039;-72
2023/02/19 05:18:06;;;;;;;7.18;6.47;;;11.40;96.70;;;;;;5031526;28;20051;-72
2023/02/19 05:20:34;;;;;;;6.57;5.88;;;11.40;96.70;;;;;;5036286;28;20152;-73
2023/02/19 05:23:02;;;;;;;8.50;5.97;;;11.50;96.70;;;;;;5057212;28;20045;-73
2023/02/19 05:25:30;;;;;;;7.55;6.00;;;11.50;96.70;;;;;;5057768;28;20150;-72
2023/02/19 05:28:15;;;;;;;7.68;5.93;;;11.50;96.70;;;;;;5055176;28;20060;-72
2023/02/19 05:30:46;;;;;;;6.25;5.45;;;11.50;96.70;;;;;;5041308;28;20048;-72
2023/02/19 05:33:14;;;;;;;6.65;5.57;;;11.50;96.70;;;;;;5054111;28;20102;-72
2023/02/19 05:35:43;;;;;;;7.38;6.28;;;11.40;96.70;;;;;;5062576;28;20048;-72
2023/02/19 05:38:11;;;;;;;6.97;5.65;;;11.50;96.70;;;;;;5042329;28;20068;-72
2023/02/19 05:40:39;;;;;;;6.43;5.75;;;11.50;96.70;;;;;;5062106;28;20502;-72
2023/02/19 05:43:07;;;;;;;6.55;5.47;;;11.40;96.70;;;;;;5016479;28;20550;-72
2023/02/19 05:45:36;;;;;;;6.82;5.97;;;11.50;96.70;;;;;;5032791;28;20479;-72
2023/02/19 05:48:06;;;;;;;9.65;6.07;;;11.50;96.70;;;;;;5035987;28;20052;-72
2023/02/19 05:50:35;;;;;;;8.32;6.65;;;11.40;96.70;;;;;;5038379;28;20507;-72
2023/02/19 05:53:12;;;;;;;7.65;6.18;;;11.40;96.70;;;;;;5029960;28;20128;-73
2023/02/19 05:55:40;;;;;;;8.13;6.25;;;11.40;96.70;;;;;;5019687;28;20058;-72
2023/02/19 05:58:07;;;;;;;7.07;6.38;;;11.40;96.70;;;;;;5065298;28;20051;-72
2023/02/19 06:00:35;;;;;;;7.38;6.53;;;11.40;96.70;;;;;;5028137;28;20040;-72
2023/02/19 06:03:04;;;;;;;8.02;6.13;;;11.40;96.70;;;;;;5052278;28;20055;-73
2023/02/19 06:05:32;;;;;;;7.53;6.00;;;11.40;96.70;;;;;;5054642;28;20041;-73
2023/02/19 06:08:00;;;;;;;7.32;6.25;;;11.40;96.70;;;;;;5039152;28;20132;-73
2023/02/19 06:10:27;;;;;;;6.82;6.00;;;11.40;96.70;;;;;;5038042;28;20553;-73
2023/02/19 06:12:55;;;;;;;6.85;5.72;;;11.40;96.70;;;;;;5065370;28;20093;-73
2023/02/19 06:15:23;;;;;;;7.05;5.72;;;11.40;96.70;;;;;;5058987;28;20049;-73
2023/02/19 06:17:50;;;;;;;7.10;5.88;;;11.40;96.70;;;;;;5011718;28;20044;-73
2023/02/19 06:20:19;;;;;;;8.65;6.40;;;11.40;96.70;;;;;;5043010;28;20122;-73
2023/02/19 06:22:49;;;;;;;7.35;5.90;;;11.50;96.70;;;;;;5063982;28;20528;-72
2023/02/19 06:25:17;;;;;;;6.35;5.47;;;11.40;96.70;;;;;;5063652;28;20090;-72
2023/02/19 06:27:44;;;;;;;6.72;5.15;;;11.40;96.70;;;;;;5038600;28;20075;-73
2023/02/19 06:30:12;;;;;;;6.43;5.50;;;11.40;96.70;;;;;;5055737;28;20040;-73
2023/02/19 06:32:40;;;;;;;7.03;5.38;;;11.40;96.70;;;;;;5060102;28;20044;-73
2023/02/19 06:35:07;;;;;;;6.35;5.68;;;11.40;96.70;;;;;;5037231;28;20044;-72
2023/02/19 06:37:37;;;;;;;6.05;5.40;;;11.40;96.70;;;;;;5045879;28;20041;-73
2023/02/19 06:40:05;;;;;;;6.22;5.38;;;11.50;96.70;;;;;;5037804;28;20052;-73
2023/02/19 06:42:33;;;;;;;7.38;6.10;;;11.50;96.70;;;;;;5062930;28;20063;-73
2023/02/19 06:45:00;;;;;;;5.85;5.25;;;11.50;96.70;;;;;;5046577;28;20144;-73
2023/02/19 06:47:30;;;;;;;6.93;6.22;;;11.50;96.70;;;;;;5030123;28;20057;-72
2023/02/19 06:49:58;;;;;;;6.38;5.53;;;11.60;96.70;;;;;;5057762;28;20032;-73
2023/02/19 06:52:27;;;;;;;7.10;5.72;;;11.60;96.70;;;;;;5029335;28;20048;-73
2023/02/19 06:54:56;;;;;;;6.15;5.55;;;11.60;96.70;;;;;;5058069;28;20094;-73
2023/02/19 06:57:23;;;;;;;6.05;5.43;;;11.60;96.70;;;;;;5064423;28;20041;-73
2023/02/19 06:59:51;;;;;;;6.30;5.50;;;11.60;96.70;;;;;;5062825;28;20124;-73
2023/02/19 07:02:19;;;;;;;6.82;5.75;;;11.60;96.70;;;;;;5058244;28;20082;-73
2023/02/19 07:04:47;;;;;;;6.70;5.70;;;11.60;96.70;;;;;;5055087;28;20047;-73
2023/02/19 07:07:14;;;;;;;6.55;5.43;;;11.60;96.70;;;;;;5028067;28;20410;-72
2023/02/19 07:09:42;;;;;;;6.60;5.78;;;11.60;96.70;;;;;;5043448;28;20037;-73
2023/02/19 07:12:12;;;;;;;8.93;6.43;;;11.60;96.70;;;;;;5055258;28;20041;-73
2023/02/19 07:14:39;;;;;;;7.75;6.10;;;11.60;96.70;;;;;;5036859;28;20390;-73
2023/02/19 07:17:07;;;;;;;8.32;6.05;;;11.60;96.70;;;;;;5028978;28;20044;-72
2023/02/19 07:19:42;;;;;;;7.85;6.45;;;11.60;96.70;;;;;;5029483;28;20048;-73
2023/02/19 07:22:10;;;;;;;9.95;7.55;;;11.60;96.70;;;;;;5031353;28;20573;-73
2023/02/19 07:24:38;;;;;;;7.88;6.35;;;11.60;96.70;;;;;;5059617;28;20041;-73
2023/02/19 07:27:06;;;;;;;7.70;5.97;;;11.60;96.70;;;;;;5041455;28;20156;-73
2023/02/19 07:29:36;;;;;;;5.97;5.38;;;11.60;96.70;;;;;;5063214;28;20063;-73
2023/02/19 07:32:04;;;;;;;8.20;5.72;;;11.60;96.70;;;;;;5058963;28;20097;-73
2023/02/19 07:34:32;;;;;;;5.97;5.38;;;11.60;96.70;;;;;;5033350;28;20053;-73
2023/02/19 07:36:59;;;;;;;6.10;5.25;;;11.60;96.70;;;;;;5025809;28;20049;-73
2023/02/19 07:39:27;;;;;;;8.00;6.53;;;11.60;96.70;;;;;;5034648;28;20049;-73
2023/02/19 07:41:56;;;;;;;7.57;6.50;;;11.70;96.70;;;;;;5044364;28;20165;-73
2023/02/19 07:44:27;;;;;;;6.30;5.70;;;11.70;96.70;;;;;;5034466;28;20139;-73
2023/02/19 07:46:56;;;;;;;6.05;5.20;;;11.70;96.70;;;;;;5028059;28;20072;-73
2023/02/19 07:49:23;;;;;;;7.35;5.38;;;11.80;96.70;;;;;;5063033;28;20049;-73
2023/02/19 07:51:55;;;;;;;5.88;5.28;;;11.80;96.70;;;;;;5047070;28;20048;-73
2023/02/19 07:54:23;;;;;;;6.80;5.28;;;11.80;96.70;;;;;;5020449;28;20076;-73
2023/02/19 07:56:50;;;;;;;6.95;5.18;;;11.80;96.70;;;;;;5051855;28;20041;-73
2023/02/19 07:59:20;;;;;;;7.55;5.25;;;11.80;96.70;;;;;;5043694;28;20037;-74
2023/02/19 08:04:35;;;;;;;7.05;6.35;;;11.90;96.70;;;;;;5043826;28;20710;-73
2023/02/19 08:07:04;;;;;;;8.05;6.32;;;11.90;96.70;;;;;;5008805;28;20053;-73
2023/02/19 08:09:32;;;;;;;6.45;5.85;;;11.90;96.70;;;;;;5031466;28;20491;-73
2023/02/19 08:14:46;;;;;;;7.60;6.30;;;12.00;96.70;;;;;;5053708;28;20385;-73
2023/02/19 08:17:14;;;;;;;8.38;6.82;;;12.00;96.70;;;;;;5053760;28;20082;-73
2023/02/19 08:19:43;;;;;;;7.95;7.15;;;12.00;96.70;;;;;;5042899;28;20048;-74
2023/02/19 08:22:11;;;;;;;8.88;7.97;;;12.00;96.70;;;;;;5021946;28;20044;-73
2023/02/19 08:24:41;;;;;;;7.00;6.30;;;12.00;96.70;;;;;;5053102;28;20231;-73
2023/02/19 08:27:09;;;;;;;6.60;5.93;;;12.10;96.70;;;;;;5036891;28;20505;-74
2023/02/19 08:29:37;;;;;;;6.72;6.03;;;12.10;96.70;;;;;;5038126;28;20108;-73
2023/02/19 08:32:05;;;;;;;8.45;6.10;;;12.10;96.70;;;;;;5033998;28;20041;-73
2023/02/19 08:34:32;;;;;;;7.22;6.47;;;12.10;96.70;;;;;;5013679;28;20044;-73
2023/02/19 08:37:06;;;;;;;7.90;6.57;;;12.10;96.70;;;;;;5027051;28;20457;-74
2023/02/19 08:39:34;;;;;;;7.85;7.05;;;12.10;96.70;;;;;;5027955;28;20127;-76
2023/02/19 08:42:02;;;;;;;7.40;6.50;;;12.20;96.70;;;;;;5062145;28;20498;-75
2023/02/19 08:44:31;;;;;;;8.10;6.32;;;12.10;96.70;;;;;;5053896;28;20045;-76
2023/02/19 08:46:58;;;;;;;7.97;7.18;;;12.10;96.70;;;;;;5039644;28;20393;-76
2023/02/19 08:49:26;;;;;;;7.57;6.90;;;12.20;96.70;;;;;;5017887;28;20045;-75
2023/02/19 08:51:54;;;;;;;7.20;6.18;;;12.20;96.70;;;;;;5053356;28;20040;-75
2023/02/19 08:54:23;;;;;;;7.80;6.70;;;12.20;96.70;;;;;;5052201;28;20427;-75
2023/02/19 08:56:51;;;;;;;6.65;5.95;;;12.20;96.70;;;;;;5059037;28;20090;-76
2023/02/19 08:59:19;;;;;;;7.57;6.75;;;12.20;96.70;;;;;;5060791;28;20063;-75
2023/02/19 09:01:47;;;;;;;8.23;7.38;;;12.20;96.70;;;;;;5038197;28;20056;-76
2023/02/19 09:04:15;;;;;;;8.25;7.45;;;12.20;96.70;;;;;;5032160;28;20095;-75
2023/02/19 09:06:43;;;;;;;8.00;7.30;;;12.30;96.70;;;;;;5042136;28;20048;-75
2023/02/19 09:09:10;;;;;;;8.40;7.50;;;12.40;96.70;;;;;;5037350;28;20123;-75
2023/02/19 09:11:40;;;;;;;7.43;6.63;;;12.40;96.70;;;;;;5046058;28;20040;-75
2023/02/19 09:14:08;;;;;;;8.52;6.95;;;12.50;96.70;;;;;;5022528;28;20510;-75
2023/02/19 09:16:36;;;;;;;9.18;7.28;;;12.50;96.70;;;;;;5034483;28;20050;-75
2023/02/19 09:19:04;;;;;;;8.30;7.18;;;12.60;96.70;;;;;;5031476;28;20534;-75
2023/02/19 09:21:31;;;;;;;8.00;6.75;;;12.50;96.70;;;;;;5030929;28;20045;-75
2023/02/19 09:23:59;;;;;;;9.05;7.43;;;12.50;96.70;;;;;;5048759;28;20067;-75
2023/02/19 09:26:27;;;;;;;8.52;7.63;;;12.60;96.70;;;;;;5031208;28;20040;-76
2023/02/19 09:28:58;;;;;;;9.40;7.70;;;12.60;96.70;;;;;;5026571;28;20057;-74
2023/02/19 09:31:26;;;;;;;8.52;7.68;;;12.70;96.70;;;;;;5032039;28;20524;-75
2023/02/19 09:33:54;;;;;;;8.82;7.90;;;12.60;96.70;;;;;;5054749;28;20198;-75
2023/02/19 09:36:21;;;;;;;9.48;7.85;;;12.60;96.70;;;;;;5049535;28;20037;-75
2023/02/19 09:38:49;;;;;;;10.93;7.93;;;12.70;96.70;;;;;;5017826;28;20434;-75
2023/02/19 09:41:25;;;;;;;10.85;8.98;;;12.60;96.70;;;;;;5026487;28;20431;-75
2023/02/19 09:43:53;;;;;;;11.35;9.85;;;12.60;96.70;;;;;;5044552;28;20059;-76
2023/02/19 09:46:30;;;;;;;10.27;9.18;;;12.60;96.70;;;;;;5047325;28;20071;-76
2023/02/19 09:49:04;;;;;;;11.10;9.57;;;12.60;96.70;;;;;;5044838;28;20055;-73
2023/02/19 09:51:35;;;;;;;12.07;10.73;;;12.60;96.70;;;;;;5060543;28;20064;-75
2023/02/19 09:54:05;;;;;;;13.25;10.85;;;12.60;96.70;;;;;;5059745;28;20051;-73
2023/02/19 09:56:34;;;;;;;12.85;11.55;;;12.50;96.70;;;;;;5056862;28;20068;-74
2023/02/19 09:59:02;;;;;;;18.88;14.52;;;12.50;96.70;;;;;;5043848;28;20037;-73
2023/02/19 10:01:36;;;;;;;19.10;14.15;;;12.40;96.70;;;;;;5036833;28;20044;-73
2023/02/19 10:04:04;;;;;;;28.27;19.27;;;12.40;96.70;;;;;;5053189;28;20053;-73
2023/02/19 10:06:35;;;;;;;16.92;13.38;;;12.40;96.70;;;;;;5050527;28;20045;-73
2023/02/19 10:09:15;;;;;;;14.60;13.10;;;12.40;96.70;;;;;;5053155;28;20040;-72
2023/02/19 10:11:43;;;;;;;30.15;24.27;;;12.50;96.70;;;;;;5059236;28;20045;-73
2023/02/19 10:14:16;;;;;;;18.15;16.20;;;12.50;96.70;;;;;;5040790;28;20561;-73
2023/02/19 10:16:49;;;;;;;17.02;15.23;;;12.50;96.70;;;;;;5040249;28;20063;-73
2023/02/19 10:19:17;;;;;;;22.33;19.98;;;12.50;96.70;;;;;;5029360;28;20049;-74
2023/02/19 10:21:45;;;;;;;19.13;16.83;;;12.60;96.70;;;;;;5026706;28;20124;-73
2023/02/19 10:24:19;;;;;;;31.75;18.05;;;12.70;96.70;;;;;;5037120;28;20048;-73
2023/02/19 10:26:48;;;;;;;25.70;16.02;;;12.70;96.70;;;;;;5062497;28;20044;-78
2023/02/19 10:29:16;;;;;;;15.20;11.85;;;12.80;96.70;;;;;;5036361;28;20122;-77
2023/02/19 10:31:45;;;;;;;19.35;12.60;;;12.90;96.70;;;;;;5019395;28;20048;-74
2023/02/19 10:34:17;;;;;;;21.80;14.05;;;12.90;96.70;;;;;;5047875;28;20123;-74
2023/02/19 10:36:47;;;;;;;16.67;11.13;;;12.90;96.70;;;;;;5030704;28;20140;-74
2023/02/19 10:39:34;;;;;;;35.60;19.85;;;13.00;96.70;;;;;;5051843;28;20040;-75
2023/02/19 10:42:03;;;;;;;13.65;11.05;;;13.00;96.70;;;;;;5051018;28;20057;-73
2023/02/19 10:44:37;;;;;;;12.48;9.60;;;13.00;96.70;;;;;;5040236;28;20102;-74
2023/02/19 10:47:06;;;;;;;10.85;8.50;;;13.00;96.70;;;;;;5041726;28;20045;-75
2023/02/19 10:49:38;;;;;;;10.60;8.65;;;13.10;96.70;;;;;;5034856;28;20048;-73
2023/02/19 10:52:19;;;;;;;11.13;9.23;;;13.20;96.70;;;;;;5052771;28;20163;-74
2023/02/19 10:54:50;;;;;;;11.43;9.43;;;13.40;96.70;;;;;;5031758;28;20077;-75
2023/02/19 10:57:33;;;;;;;12.10;9.95;;;13.50;96.70;;;;;;5049653;28;20044;-71
2023/02/19 11:00:17;;;;;;;12.07;10.45;;;13.40;96.70;;;;;;5055616;28;20064;-71
2023/02/19 11:02:47;;;;;;;13.57;9.93;;;13.40;96.70;;;;;;5052234;28;20056;-73
2023/02/19 11:05:21;;;;;;;12.52;9.20;;;13.40;96.70;;;;;;5024627;28;20044;-72
2023/02/19 11:07:52;;;;;;;9.55;8.65;;;13.30;96.70;;;;;;5022551;28;20059;-72
2023/02/19 11:10:28;;;;;;;10.73;9.05;;;13.40;96.70;;;;;;5055941;28;20070;-72
2023/02/19 11:13:00;;;;;;;14.50;12.00;;;13.40;96.70;;;;;;5049622;28;20048;-71
2023/02/19 11:15:30;;;;;;;18.67;14.57;;;13.50;96.70;;;;;;5036714;28;20044;-73
2023/02/19 11:18:03;;;;;;;14.25;12.50;;;13.50;96.70;;;;;;5034318;28;20135;-72
2023/02/19 11:20:32;;;;;;;14.63;11.95;;;13.50;96.70;;;;;;5046016;28;20051;-73
2023/02/19 11:23:14;;;;;;;11.55;10.32;;;13.50;96.70;;;;;;5014650;28;20036;-72
2023/02/19 11:25:45;;;;;;;15.75;12.02;;;13.50;96.70;;;;;;5053625;28;20438;-71
2023/02/19 11:28:28;;;;;;;11.70;10.50;;;13.60;96.70;;;;;;5039143;28;20052;-72
2023/02/19 11:31:13;;;;;;;11.90;9.75;;;13.70;96.70;;;;;;5049309;28;20047;-72
2023/02/19 11:33:49;;;;;;;12.52;8.90;;;13.90;96.70;;;;;;5052716;28;20056;-72
2023/02/19 11:36:33;;;;;;;10.63;8.88;;;13.90;96.70;;;;;;5026776;28;20060;-72
2023/02/19 11:39:20;;;;;;;12.30;10.27;;;14.10;96.70;;;;;;5044321;28;20059;-71
2023/02/19 11:42:10;;;;;;;10.27;9.00;;;14.00;96.70;;;;;;5027351;28;20130;-71
2023/02/19 11:44:49;;;;;;;12.35;10.27;;;14.00;96.70;;;;;;5059683;28;20049;-73
2023/02/19 11:47:41;;;;;;;12.05;10.77;;;13.90;96.70;;;;;;5052099;28;20071;-71
2023/02/19 11:50:20;;;;;;;12.27;9.43;;;14.10;96.70;;;;;;5056605;28;20048;-72
2023/02/19 11:53:01;;;;;;;10.65;9.65;;;14.40;96.70;;;;;;5027017;28;20088;-73
2023/02/19 11:55:42;;;;;;;9.90;8.63;;;14.50;96.70;;;;;;5050047;28;20433;-72
2023/02/19 11:58:34;;;;;;;9.88;8.68;;;14.70;96.70;;;;;;5045176;28;20138;-72
2023/02/19 12:01:10;;;;;;;11.02;8.18;;;14.60;96.70;;;;;;5032188;28;20095;-71
2023/02/19 12:03:56;;;;;;;10.70;8.43;;;14.60;96.70;;;;;;5049902;28;20478;-71
2023/02/19 12:06:33;;;;;;;12.65;8.23;;;14.70;96.70;;;;;;5058904;28;20079;-71
2023/02/19 12:09:21;;;;;;;9.00;8.07;;;14.70;96.70;;;;;;5051450;28;20064;-72
2023/02/19 12:12:00;;;;;;;9.77;8.77;;;14.90;96.70;;;;;;5009076;28;20056;-72
2023/02/19 12:14:49;;;;;;;17.33;12.43;;;15.20;96.70;;;;;;5034879;28;20040;-71
2023/02/19 12:17:29;;;;;;;11.02;7.75;;;15.30;96.70;;;;;;5032599;28;20063;-72
2023/02/19 12:20:11;;;;;;;9.57;7.60;;;15.20;96.70;;;;;;5050507;28;20639;-72
2023/02/19 12:22:48;;;;;;;11.75;7.65;;;15.10;96.70;;;;;;5050200;28;20798;-72
2023/02/19 12:25:44;;;;;;;14.45;9.32;;;15.00;96.70;;;;;;5050913;28;20053;-72
2023/02/19 12:28:30;;;;;;;12.85;9.82;;;14.90;96.70;;;;;;5010187;28;20336;-72
2023/02/19 12:31:14;;;;;;;12.90;8.98;;;14.80;96.70;;;;;;5040423;28;20055;-71
2023/02/19 12:33:57;;;;;;;17.00;9.57;;;14.80;96.70;;;;;;5033524;28;20071;-73
2023/02/19 12:36:33;;;;;;;9.50;7.93;;;14.80;96.70;;;;;;5035368;28;20037;-72
2023/02/19 12:39:12;;;;;;;7.78;6.97;;;14.80;96.70;;;;;;5055063;28;20090;-72
2023/02/19 12:41:44;;;;;;;8.20;7.38;;;14.80;96.70;;;;;;5051889;28;20042;-73
2023/02/19 12:44:18;;;;;;;9.75;6.78;;;14.80;96.70;;;;;;5053142;28;20585;-72
2023/02/19 12:46:50;;;;;;;8.82;7.20;;;14.90;96.70;;;;;;5039157;28;20048;-71
2023/02/19 12:49:25;;;;;;;10.45;6.55;;;15.10;96.70;;;;;;5035951;28;20056;-73
2023/02/19 12:51:57;;;;;;;9.45;6.78;;;15.30;96.70;;;;;;5061907;28;20395;-74
2023/02/19 12:54:33;;;;;;;9.10;6.68;;;15.20;96.70;;;;;;5051015;28;20092;-74
2023/02/19 12:57:05;;;;;;;9.02;6.10;;;15.20;96.70;;;;;;5023727;28;20094;-74
2023/02/19 12:59:38;;;;;;;6.72;4.78;;;15.10;96.70;;;;;;5054189;28;20044;-73
2023/02/19 13:02:12;;;;;;;6.88;4.50;;;15.00;96.70;;;;;;5054134;28;20056;-72
2023/02/19 13:04:45;;;;;;;10.00;4.75;;;15.00;96.70;;;;;;5058981;28;20036;-72
2023/02/19 13:07:17;;;;;;;5.88;4.95;;;15.00;96.70;;;;;;5060327;28;20044;-73
2023/02/19 13:09:50;;;;;;;7.38;5.28;;;15.00;96.70;;;;;;5033353;28;20067;-74
2023/02/19 13:12:24;;;;;;;6.70;4.88;;;15.00;96.70;;;;;;5057795;28;20040;-72
2023/02/19 13:14:57;;;;;;;5.70;4.60;;;14.90;96.70;;;;;;5033524;28;20045;-72
2023/02/19 13:17:30;;;;;;;8.40;4.72;;;14.90;96.70;;;;;;5049870;28;20047;-72
2023/02/19 13:20:08;;;;;;;5.68;4.03;;;14.80;96.70;;;;;;5043637;28;20044;-72
2023/02/19 13:25:45;;;;;;;8.55;4.97;;;14.80;96.70;;;;;;5046143;28;20040;-72
2023/02/19 13:28:25;;;;;;;11.52;5.53;;;14.80;96.70;;;;;;5055854;28;20128;-72
2023/02/19 13:31:09;;;;;;;6.32;4.30;;;14.80;96.70;;;;;;5041644;28;20514;-73